地図

経路データ

SID SEASON NUMBER BASIN SUBBASIN NAME ISO_TIME NATURE LAT LON WMO_WIND WMO_PRES WMO_AGENCY TRACK_TYPE DIST2LAND LANDFALL IFLAG USA_AGENCY USA_ATCF_ID USA_LAT USA_LON USA_RECORD USA_STATUS USA_WIND USA_PRES USA_SSHS USA_R34_NE USA_R34_SE USA_R34_SW USA_R34_NW USA_R50_NE USA_R50_SE USA_R50_SW USA_R50_NW USA_R64_NE USA_R64_SE USA_R64_SW USA_R64_NW USA_POCI USA_ROCI USA_RMW USA_EYE TOKYO_LAT TOKYO_LON TOKYO_GRADE TOKYO_WIND TOKYO_PRES TOKYO_R50_DIR TOKYO_R50_LONG TOKYO_R50_SHORT TOKYO_R30_DIR TOKYO_R30_LONG TOKYO_R30_SHORT TOKYO_LAND CMA_LAT CMA_LON CMA_CAT CMA_WIND CMA_PRES HKO_LAT HKO_LON HKO_CAT HKO_WIND HKO_PRES NEWDELHI_LAT NEWDELHI_LON NEWDELHI_GRADE NEWDELHI_WIND NEWDELHI_PRES NEWDELHI_CI NEWDELHI_DP NEWDELHI_POCI REUNION_LAT REUNION_LON REUNION_TYPE REUNION_WIND REUNION_PRES REUNION_TNUM REUNION_CI REUNION_RMW REUNION_R34_NE REUNION_R34_SE REUNION_R34_SW REUNION_R34_NW REUNION_R50_NE REUNION_R50_SE REUNION_R50_SW REUNION_R50_NW REUNION_R64_NE REUNION_R64_SE REUNION_R64_SW REUNION_R64_NW BOM_LAT BOM_LON BOM_TYPE BOM_WIND BOM_PRES BOM_TNUM BOM_CI BOM_RMW BOM_R34_NE BOM_R34_SE BOM_R34_SW BOM_R34_NW BOM_R50_NE BOM_R50_SE BOM_R50_SW BOM_R50_NW BOM_R64_NE BOM_R64_SE BOM_R64_SW BOM_R64_NW BOM_ROCI BOM_POCI BOM_EYE BOM_POS_METHOD BOM_PRES_METHOD NADI_LAT NADI_LON NADI_CAT NADI_WIND NADI_PRES WELLINGTON_LAT WELLINGTON_LON WELLINGTON_WIND WELLINGTON_PRES DS824_LAT DS824_LON DS824_STAGE DS824_WIND DS824_PRES TD9636_LAT TD9636_LON TD9636_STAGE TD9636_WIND TD9636_PRES TD9635_LAT TD9635_LON TD9635_WIND TD9635_PRES TD9635_ROCI NEUMANN_LAT NEUMANN_LON NEUMANN_CLASS NEUMANN_WIND NEUMANN_PRES MLC_LAT MLC_LON MLC_CLASS MLC_WIND MLC_PRES USA_GUST BOM_GUST BOM_GUST_PER REUNION_GUST REUNION_GUST_PER USA_SEAHGT USA_SEARAD_NE USA_SEARAD_SE USA_SEARAD_SW USA_SEARAD_NW STORM_SPEED STORM_DIR
1935189N21089 1935 34 NI BB NOT_NAMED 1935-07-08 00:00:00 TS 20.7000 89.2000 main 101 78 _________O____ -1 20.7000 89.2000 TC 34 8 311
1935189N21089 1935 34 NI BB NOT_NAMED 1935-07-08 03:00:00 TS 20.9618 88.8785 main 67 33 _________PO___ -1 21.0926 88.7177 TC 33 20.7000 89.2000 2 10 311
1935189N21089 1935 34 NI BB NOT_NAMED 1935-07-08 06:00:00 TS 21.3556 88.3799 main 22 10 _________OP___ -1 21.5000 88.2000 TC 32 21.1391 88.6498 2 13 310
1935189N21089 1935 34 NI BB NOT_NAMED 1935-07-08 09:00:00 TS 21.7680 87.8379 main 0 0 _________PP___ -1 21.9226 87.6352 TC 31 21.5618 88.1082 2 12 309
1935189N21089 1935 34 NI BB NOT_NAMED 1935-07-08 12:00:00 TS 22.1268 87.3437 main 0 0 _________OP___ -1 22.3000 87.1000 TC 30 21.9536 87.5875 2 11 307
1935189N21089 1935 34 NI BB NOT_NAMED 1935-07-08 15:00:00 TS 22.4399 86.8885 main 0 0 _________PO___ -1 22.5797 86.6771 TC 30 22.3000 87.1000 1 10 305
1935189N21089 1935 34 NI BB NOT_NAMED 1935-07-08 18:00:00 TS 22.6954 86.4774 main 0 0 _________OP___ -1 22.8000 86.3000 TC 30 22.5908 86.6549 1 9 303
1935189N21089 1935 34 NI BB NOT_NAMED 1935-07-08 21:00:00 TS 22.9270 86.0694 main 0 0 _________PP___ -1 23.0225 85.8925 TC 30 22.8316 86.2463 1 8 300
1935189N21089 1935 34 NI BB NOT_NAMED 1935-07-09 00:00:00 TS 23.1158 85.6823 main 0 0 _________OP___ -1 23.2000 85.5000 TC 30 23.0316 85.8646 1 8 295
1935189N21089 1935 34 NI BB NOT_NAMED 1935-07-09 03:00:00 TS 23.2537 85.3211 main 0 0 _________PO___ -1 23.3074 85.1423 TC 30 23.2000 85.5000 1 7 291
1935189N21089 1935 34 NI BB NOT_NAMED 1935-07-09 06:00:00 TS 23.3747 84.9654 main 0 0 _________OP___ -1 23.4000 84.8000 TC 30 23.3493 85.1309 1 7 291
1935189N21089 1935 34 NI BB NOT_NAMED 1935-07-09 09:00:00 TS 23.5073 84.6096 main 0 0 _________PP___ -1 23.5425 84.4425 TC 30 23.4721 84.7766 1 7 293
1935189N21089 1935 34 NI BB NOT_NAMED 1935-07-09 12:00:00 TS 23.6419 84.2670 main 0 0 _________OP___ -1 23.7000 84.1000 TC 30 23.5838 84.4341 1 7 294
1935189N21089 1935 34 NI BB NOT_NAMED 1935-07-09 15:00:00 TS 23.7749 83.9499 main 0 0 _________PO___ -1 23.8499 83.7999 TC 30 23.7000 84.1000 1 6 296
1935189N21089 1935 34 NI BB NOT_NAMED 1935-07-09 18:00:00 TS 23.9274 83.6339 main 0 0 _________OP___ -1 24.0000 83.5000 TC 30 23.8547 83.7679 1 7 298
1935189N21089 1935 34 NI BB NOT_NAMED 1935-07-09 21:00:00 TS 24.0898 83.3001 main 0 0 _________PP___ -1 24.1650 83.1576 TC 30 24.0146 83.4426 1 7 296
1935189N21089 1935 34 NI BB NOT_NAMED 1935-07-10 00:00:00 TS 24.2336 82.9605 main 0 0 _________OP___ -1 24.3000 82.8000 TC 30 24.1672 83.1210 1 7 291
1935189N21089 1935 34 NI BB NOT_NAMED 1935-07-10 03:00:00 TS 24.3287 82.6212 main 0 0 _________PO___ -1 24.3575 82.4423 TC 30 24.3000 82.8000 1 7 285
1935189N21089 1935 34 NI BB NOT_NAMED 1935-07-10 06:00:00 TS 24.3984 82.2691 main 0 0 _________OP___ -1 24.4000 82.1000 TC 30 24.3968 82.4382 1 7 284
1935189N21089 1935 34 NI BB NOT_NAMED 1935-07-10 09:00:00 TS 24.4864 81.9262 main 0 0 _________PP___ -1 24.5000 81.7701 TC 30 24.4729 82.0823 1 6 286
1935189N21089 1935 34 NI BB NOT_NAMED 1935-07-10 12:00:00 TS 24.5687 81.6301 main 0 0 _________OP___ -1 24.6000 81.5000 TC 30 24.5375 81.7602 1 5 286
1935189N21089 1935 34 NI BB NOT_NAMED 1935-07-10 15:00:00 TS 24.6250 81.4062 main 0 0 _________PO___ -1 24.6499 81.3124 TC 30 24.6000 81.5000 1 3 289
1935189N21089 1935 34 NI BB NOT_NAMED 1935-07-10 18:00:00 TS 24.6818 81.2693 main 0 0 _________OP___ -1 24.7000 81.2000 TC 30 24.6682 81.3213 1 2 303
1935189N21089 1935 34 NI BB NOT_NAMED 1935-07-10 21:00:00 TS 24.7603 81.1810 main 0 0 _________PP___ -1 24.7875 81.1375 TC 30 24.7422 81.2100 1 2 323
1935189N21089 1935 34 NI BB NOT_NAMED 1935-07-11 00:00:00 TS 24.8467 81.1292 main 0 0 _________OP___ -1 24.9000 81.1000 TC 30 24.8201 81.1438 1 2 336
1935189N21089 1935 34 NI BB NOT_NAMED 1935-07-11 03:00:00 NR 24.9000 81.1000 main 0 __________O___ -1 TC 24.9000 81.1000 1 1 342

IBTrACS Databaseについて

本データベースは、米国NOAAが公開する1842年以降の世界の熱帯低気圧のベストトラックデータアーカイブInternational Best Track Archive for Climate Stewardship (IBTrACS)を、ウェブで閲覧しやすい形式に変換したものです。

最終更新日:2021-10-25